Time;durP1;ratioP1;P1;durP2;ratioP2;P2;SDS_P1;SDS_P2;PMS_P1;PMS_P2;Temp;Humidity;BMP_temperature;BMP_pressure;BME280_temperature;BME280_humidity;BME280_pressure;Samples;Min_cycle;Max_cycle;Signal;HPM_P1;HPM_P2
2021/12/14 00:00:17;;;;;;;19.63;13.43;;;8.20;99.90;;;;;;4944726;29;20106;-49
2021/12/14 00:02:44;;;;;;;25.30;13.98;;;8.20;99.90;;;;;;4942863;29;20052;-49
2021/12/14 00:05:11;;;;;;;20.27;13.38;;;8.10;99.90;;;;;;4944155;29;20188;-50
2021/12/14 00:07:37;;;;;;;23.33;14.30;;;8.30;99.90;;;;;;4945298;29;20082;-49
2021/12/14 00:13:15;;;;;;;19.10;13.43;;;8.20;99.90;;;;;;4924516;29;20056;-51
2021/12/14 00:15:43;;;;;;;19.75;14.25;;;8.10;99.90;;;;;;4925143;29;20058;-50
2021/12/14 00:18:13;;;;;;;20.45;13.15;;;8.20;99.90;;;;;;4940687;28;20595;-50
2021/12/14 00:20:47;;;;;;;19.30;13.18;;;8.10;99.90;;;;;;4963551;28;20153;-49
2021/12/14 00:26:02;;;;;;;20.63;14.45;;;8.10;99.90;;;;;;4963296;28;20521;-48
2021/12/14 00:28:31;;;;;;;20.65;13.73;;;8.10;99.90;;;;;;4978450;28;20052;-50
2021/12/14 00:31:00;;;;;;;23.70;13.82;;;8.10;99.90;;;;;;5004178;28;20089;-49
2021/12/14 00:33:31;;;;;;;21.38;13.45;;;8.20;99.90;;;;;;5012896;28;20747;-50
2021/12/14 00:35:57;;;;;;;19.52;12.60;;;8.20;99.90;;;;;;5013117;28;20054;-49
2021/12/14 00:38:23;;;;;;;24.15;14.30;;;;;;;;;;5018202;28;20040;-49
2021/12/14 00:41:04;;;;;;;19.30;13.02;;;8.10;99.90;;;;;;5013618;28;20067;-52
2021/12/14 00:43:29;;;;;;;20.00;12.93;;;8.10;99.90;;;;;;5007675;28;20056;-50
2021/12/14 00:45:55;;;;;;;19.90;13.00;;;8.10;99.90;;;;;;5015332;28;20045;-50
2021/12/14 00:48:22;;;;;;;18.25;13.43;;;8.20;99.90;;;;;;5010639;28;20053;-49
2021/12/14 00:50:54;;;;;;;19.42;13.43;;;8.20;99.90;;;;;;5071826;28;20087;-50
2021/12/14 00:53:23;;;;;;;21.65;13.73;;;8.10;99.90;;;;;;5077231;28;20033;-51
2021/12/14 00:55:51;;;;;;;19.65;14.25;;;8.10;99.90;;;;;;5072600;28;20071;-50
2021/12/14 00:58:18;;;;;;;20.08;13.57;;;8.20;99.90;;;;;;5069524;28;20428;-50
2021/12/14 01:01:15;;;;;;;21.67;13.82;;;8.10;99.90;;;;;;5071004;28;20382;-53
2021/12/14 01:03:46;;;;;;;21.77;13.48;;;8.10;99.90;;;;;;5079749;28;20044;-50
2021/12/14 01:06:12;;;;;;;21.15;13.60;;;8.20;99.90;;;;;;5077855;28;20086;-49
2021/12/14 01:08:43;;;;;;;21.08;14.10;;;8.10;99.90;;;;;;5069823;28;20531;-52
2021/12/14 01:11:33;;;;;;;19.23;12.90;;;8.00;99.90;;;;;;5070764;28;20579;-49
2021/12/14 01:14:06;;;;;;;18.42;14.00;;;8.00;99.90;;;;;;5079089;28;20428;-49
2021/12/14 01:19:19;;;;;;;17.85;13.68;;;8.00;99.90;;;;;;5079261;28;20040;-52
2021/12/14 01:27:36;;;;;;;21.20;14.43;;;8.00;99.90;;;;;;5014131;28;20099;-49
2021/12/14 01:30:12;;;;;;;23.23;15.52;;;8.00;99.90;;;;;;5011794;28;20046;-49
2021/12/14 01:32:44;;;;;;;20.40;15.13;;;7.90;99.90;;;;;;5016714;28;20565;-52
2021/12/14 01:35:13;;;;;;;21.20;15.30;;;8.10;99.90;;;;;;5000429;28;20054;-50
2021/12/14 01:37:46;;;;;;;22.45;15.30;;;8.00;99.90;;;;;;5017037;28;20049;-51
2021/12/14 01:40:30;;;;;;;19.50;14.57;;;8.00;99.90;;;;;;5011573;28;20834;-50
2021/12/14 01:42:57;;;;;;;22.50;15.75;;;8.00;99.90;;;;;;5001891;28;20041;-50
2021/12/14 01:45:24;;;;;;;22.77;16.42;;;9.00;99.90;;;;;;4991801;28;20084;-50
2021/12/14 01:47:54;;;;;;;26.48;16.42;;;7.90;99.90;;;;;;5004192;28;20053;-51
2021/12/14 01:50:28;;;;;;;25.50;15.65;;;8.00;99.90;;;;;;5008293;28;20915;-50
2021/12/14 01:52:56;;;;;;;22.27;15.02;;;8.00;99.90;;;;;;5013341;28;20050;-50
2021/12/14 01:55:26;;;;;;;23.25;16.20;;;8.00;99.90;;;;;;5010162;28;20053;-51
2021/12/14 01:57:59;;;;;;;22.38;16.70;;;8.00;99.90;;;;;;5005990;28;20058;-50
2021/12/14 02:00:46;;;;;;;23.98;16.70;;;8.00;99.90;;;;;;5005730;28;20085;-49
2021/12/14 02:03:15;;;;;;;23.13;16.83;;;8.10;99.90;;;;;;5077884;28;20032;-54
2021/12/14 02:05:47;;;;;;;25.90;16.45;;;7.80;99.90;;;;;;5071684;28;20075;-50
2021/12/14 02:08:23;;;;;;;23.42;16.98;;;8.00;99.90;;;;;;5071829;28;20128;-54
2021/12/14 02:10:51;;;;;;;24.73;17.58;;;8.00;99.90;;;;;;5079938;28;20595;-50
2021/12/14 02:13:52;;;;;;;23.52;17.77;;;7.90;99.90;;;;;;5077449;28;21842;-51
2021/12/14 02:16:19;;;;;;;23.35;18.17;;;8.00;99.90;;;;;;4985474;28;20090;-50
2021/12/14 02:18:49;;;;;;;24.23;18.73;;;7.90;99.90;;;;;;4991026;28;20077;-49
2021/12/14 02:21:15;;;;;;;26.67;17.95;;;8.50;99.90;;;;;;4994685;28;20052;-49
2021/12/14 02:23:46;;;;;;;27.95;18.38;;;8.00;99.90;;;;;;4989515;28;20121;-50
2021/12/14 02:26:16;;;;;;;24.77;19.15;;;7.90;99.90;;;;;;4988799;28;20045;-49
2021/12/14 02:28:44;;;;;;;26.92;18.33;;;7.90;99.90;;;;;;4990133;28;20105;-50
2021/12/14 02:31:12;;;;;;;24.98;19.17;;;7.90;99.90;;;;;;4988725;28;20068;-49
2021/12/14 02:33:40;;;;;;;28.00;20.60;;;8.20;99.90;;;;;;4989777;28;20057;-50
2021/12/14 02:36:18;;;;;;;28.05;19.88;;;7.90;99.90;;;;;;4994733;28;20589;-50
2021/12/14 02:38:48;;;;;;;27.95;20.42;;;7.90;99.90;;;;;;4992436;28;20057;-50
2021/12/14 02:41:16;;;;;;;32.35;21.00;;;7.90;99.90;;;;;;4992697;28;20042;-51
2021/12/14 02:43:52;;;;;;;29.55;19.73;;;7.90;99.90;;;;;;4992690;28;20038;-50
2021/12/14 02:46:26;;;;;;;27.15;19.27;;;7.90;99.90;;;;;;4999953;28;20160;-51
2021/12/14 02:48:57;;;;;;;27.85;20.20;;;7.80;99.90;;;;;;4991275;28;20514;-50
2021/12/14 02:51:37;;;;;;;26.42;19.38;;;7.70;99.90;;;;;;5015354;28;20521;-50
2021/12/14 02:54:16;;;;;;;29.95;21.85;;;7.90;99.90;;;;;;5064236;28;20044;-51
2021/12/14 02:56:46;;;;;;;28.50;20.77;;;7.90;99.90;;;;;;5074862;28;20111;-49
2021/12/14 02:59:18;;;;;;;29.15;19.92;;;7.90;99.90;;;;;;5074137;28;20124;-49
2021/12/14 03:01:47;;;;;;;27.70;20.25;;;7.90;99.90;;;;;;5079954;28;20452;-52
2021/12/14 03:04:14;;;;;;;27.10;20.10;;;7.80;99.90;;;;;;5082816;28;20040;-49
2021/12/14 03:06:53;;;;;;;30.55;21.90;;;7.80;99.90;;;;;;5078166;28;20112;-49
2021/12/14 03:12:06;;;;;;;28.50;21.73;;;7.80;99.90;;;;;;5066044;28;20048;-50
2021/12/14 03:14:34;;;;;;;30.38;21.17;;;7.70;99.90;;;;;;5076773;28;20039;-49
2021/12/14 03:17:00;;;;;;;31.92;22.10;;;7.80;99.90;;;;;;5074513;28;20048;-50
2021/12/14 03:19:26;;;;;;;27.10;20.77;;;7.80;99.90;;;;;;5065107;28;20091;-50
2021/12/14 03:21:54;;;;;;;30.55;21.88;;;7.80;99.90;;;;;;5072225;28;20621;-50
2021/12/14 03:24:21;;;;;;;31.67;23.13;;;7.80;99.90;;;;;;5073590;28;20079;-52
2021/12/14 03:26:52;;;;;;;31.92;23.02;;;7.80;99.90;;;;;;5066985;28;20036;-54
2021/12/14 03:29:29;;;;;;;31.95;22.63;;;7.80;99.90;;;;;;5064921;28;20047;-50
2021/12/14 03:31:57;;;;;;;34.20;23.85;;;7.80;99.90;;;;;;5074585;28;20039;-49
2021/12/14 03:34:33;;;;;;;30.20;23.10;;;7.90;99.90;;;;;;5072603;28;20536;-51
2021/12/14 03:37:07;;;;;;;32.22;22.45;;;7.80;99.90;;;;;;5072035;28;20071;-51
2021/12/14 03:39:38;;;;;;;31.30;22.40;;;7.80;99.90;;;;;;5066524;28;20048;-52
2021/12/14 03:42:37;;;;;;;32.97;22.17;;;7.80;99.90;;;;;;5070614;28;20039;-55
2021/12/14 03:45:10;;;;;;;33.28;22.63;;;7.80;99.90;;;;;;5064048;28;20615;-50
2021/12/14 03:47:41;;;;;;;32.95;24.58;;;7.80;99.90;;;;;;5077166;28;20100;-49
2021/12/14 03:50:30;;;;;;;34.63;22.80;;;7.90;99.90;;;;;;5069732;28;20044;-51
2021/12/14 03:52:56;;;;;;;34.03;24.15;;;7.90;99.90;;;;;;5060517;28;20044;-50
2021/12/14 03:55:26;;;;;;;33.85;23.65;;;7.80;99.90;;;;;;5066567;28;20112;-51
2021/12/14 03:57:52;;;;;;;35.80;24.17;;;7.70;99.90;;;;;;5066909;28;20123;-52
2021/12/14 04:00:23;;;;;;;33.13;23.95;;;7.80;99.90;;;;;;5070580;28;20040;-51
2021/12/14 04:02:53;;;;;;;34.53;24.02;;;7.80;99.90;;;;;;5068743;28;20048;-51
2021/12/14 04:05:20;;;;;;;37.78;24.88;;;8.00;99.90;;;;;;5077455;28;20115;-50
2021/12/14 04:07:46;;;;;;;34.10;24.48;;;7.80;99.90;;;;;;5068947;28;20036;-49
2021/12/14 04:10:17;;;;;;;34.45;24.88;;;8.00;99.90;;;;;;5063547;28;20086;-50
2021/12/14 04:12:43;;;;;;;34.40;24.90;;;7.80;99.90;;;;;;5062476;28;20798;-51
2021/12/14 04:15:10;;;;;;;32.80;24.13;;;8.10;99.90;;;;;;5072438;28;20079;-50
2021/12/14 04:17:38;;;;;;;35.60;24.73;;;7.70;99.90;;;;;;5073042;28;20047;-50
2021/12/14 04:20:19;;;;;;;36.85;24.38;;;7.80;99.90;;;;;;5082113;28;20457;-53
2021/12/14 04:22:48;;;;;;;32.08;24.35;;;7.90;99.90;;;;;;5079565;28;20046;-52
2021/12/14 04:25:17;;;;;;;39.17;26.63;;;7.80;99.90;;;;;;5076353;28;20044;-49
2021/12/14 04:27:43;;;;;;;35.30;24.60;;;7.90;99.90;;;;;;5080188;28;20139;-50
2021/12/14 04:30:13;;;;;;;39.63;26.08;;;7.90;99.90;;;;;;5071178;28;20463;-49
2021/12/14 04:32:44;;;;;;;36.13;25.80;;;8.10;99.90;;;;;;5070398;28;20036;-51
2021/12/14 04:35:12;;;;;;;34.83;24.67;;;7.90;99.90;;;;;;5073062;28;20072;-51
2021/12/14 04:37:40;;;;;;;38.55;25.65;;;7.90;99.90;;;;;;5077752;28;20492;-50
2021/12/14 04:40:24;;;;;;;34.67;24.92;;;8.00;99.90;;;;;;5078916;28;20119;-55
2021/12/14 04:54:02;;;;;;;34.03;25.10;;;7.80;99.90;;;;;;5077445;28;20099;-51
2021/12/14 04:56:43;;;;;;;37.65;25.63;;;7.80;99.90;;;;;;5079216;28;20640;-54
2021/12/14 04:59:36;;;;;;;37.83;26.50;;;7.70;99.90;;;;;;5065930;28;20452;-51
2021/12/14 05:02:11;;;;;;;35.47;26.27;;;7.80;99.90;;;;;;5066718;28;20108;-52
2021/12/14 05:04:37;;;;;;;38.00;24.98;;;7.70;99.90;;;;;;5074936;28;20098;-54
2021/12/14 05:09:48;;;;;;;41.67;26.60;;;7.60;99.90;;;;;;5072404;28;20044;-55
2021/12/14 05:12:18;;;;;;;43.22;27.25;;;7.70;99.90;;;;;;5073932;28;20120;-50
2021/12/14 05:14:45;;;;;;;44.53;28.70;;;7.90;99.90;;;;;;5074202;28;20504;-50
2021/12/14 05:17:17;;;;;;;43.33;29.38;;;7.70;99.90;;;;;;5079924;28;20040;-50
2021/12/14 05:19:45;;;;;;;43.75;29.10;;;7.80;99.90;;;;;;5079600;28;20040;-50
2021/12/14 05:22:18;;;;;;;42.10;28.63;;;7.60;99.90;;;;;;5078712;28;20504;-50
2021/12/14 05:24:48;;;;;;;44.85;28.75;;;7.60;99.90;;;;;;5076459;28;20099;-53
2021/12/14 05:27:23;;;;;;;44.45;28.33;;;7.70;99.90;;;;;;5067315;28;20048;-51
2021/12/14 05:29:49;;;;;;;43.63;29.55;;;7.60;99.90;;;;;;5074054;28;20055;-53
2021/12/14 05:32:17;;;;;;;46.78;30.35;;;7.70;99.90;;;;;;5071573;28;20040;-50
2021/12/14 05:34:46;;;;;;;45.75;31.30;;;7.70;99.90;;;;;;5069585;28;20375;-51
2021/12/14 05:37:18;;;;;;;48.67;32.25;;;7.70;99.90;;;;;;5073954;28;20032;-49
2021/12/14 05:44:44;;;;;;;49.45;29.65;;;7.70;99.90;;;;;;5080873;28;20048;-49
2021/12/14 05:47:13;;;;;;;47.03;30.80;;;7.70;99.90;;;;;;5071303;28;20519;-51
2021/12/14 05:49:44;;;;;;;46.20;29.90;;;7.70;99.90;;;;;;5073301;28;20089;-52
2021/12/14 05:52:13;;;;;;;44.80;30.55;;;7.70;99.90;;;;;;5064762;28;20045;-49
2021/12/14 05:54:39;;;;;;;48.65;31.65;;;7.60;99.90;;;;;;5066067;28;20350;-49
2021/12/14 05:57:07;;;;;;;46.88;31.27;;;7.70;99.90;;;;;;5079150;28;20194;-49
2021/12/14 05:59:34;;;;;;;46.75;31.65;;;7.70;99.90;;;;;;5083188;28;20040;-53
2021/12/14 06:02:03;;;;;;;48.58;30.42;;;7.50;99.90;;;;;;5072111;28;20408;-50
2021/12/14 06:04:35;;;;;;;47.58;31.40;;;7.70;99.90;;;;;;5076414;28;20101;-49
2021/12/14 06:07:01;;;;;;;53.15;32.75;;;;;;;;;;5066371;28;20097;-49
2021/12/14 06:09:31;;;;;;;57.78;33.83;;;7.60;99.90;;;;;;5072304;28;20150;-49
2021/12/14 06:12:00;;;;;;;53.15;32.92;;;7.60;99.90;;;;;;5082297;28;20055;-51
2021/12/14 06:14:28;;;;;;;47.50;31.70;;;7.60;99.90;;;;;;5081421;28;20647;-49
2021/12/14 06:17:03;;;;;;;56.40;32.80;;;7.50;99.90;;;;;;5074284;28;20664;-54
2021/12/14 06:19:32;;;;;;;51.70;33.47;;;7.50;99.90;;;;;;5065839;28;20051;-51
2021/12/14 06:22:11;;;;;;;48.58;32.30;;;7.50;99.90;;;;;;5074807;28;20036;-53
2021/12/14 06:24:40;;;;;;;55.80;32.70;;;7.40;99.90;;;;;;5066421;28;20213;-53
2021/12/14 06:27:10;;;;;;;50.33;30.83;;;7.70;99.90;;;;;;5061583;28;20044;-49
2021/12/14 06:29:42;;;;;;;49.53;33.83;;;7.60;99.90;;;;;;5067118;28;20058;-49
2021/12/14 06:32:13;;;;;;;55.05;33.53;;;7.40;99.90;;;;;;5081680;28;20032;-50
2021/12/14 06:35:01;;;;;;;57.22;35.75;;;7.60;99.90;;;;;;5082032;28;20328;-50
2021/12/14 06:40:30;;;;;;;53.08;33.65;;;7.50;99.90;;;;;;5061051;28;20572;-50
2021/12/14 06:42:59;;;;;;;54.20;34.95;;;7.50;99.90;;;;;;5076295;28;20401;-50
2021/12/14 06:45:34;;;;;;;58.13;36.00;;;7.70;99.90;;;;;;5072011;28;20087;-49
2021/12/14 06:48:14;;;;;;;62.38;35.88;;;7.70;99.90;;;;;;5071373;28;20060;-52
2021/12/14 06:51:04;;;;;;;63.28;36.85;;;7.70;99.90;;;;;;5067632;28;20123;-50
2021/12/14 06:53:33;;;;;;;60.78;35.17;;;7.50;99.90;;;;;;5071115;28;20059;-53
2021/12/14 06:56:01;;;;;;;60.45;36.80;;;7.60;99.90;;;;;;5064616;28;20051;-50
2021/12/14 06:58:33;;;;;;;68.00;37.53;;;7.70;99.90;;;;;;5077087;28;20043;-49
2021/12/14 07:00:59;;;;;;;66.53;38.08;;;7.70;99.90;;;;;;5071325;28;20044;-49
2021/12/14 07:03:36;;;;;;;64.90;38.38;;;7.60;99.90;;;;;;5077174;28;20036;-49
2021/12/14 07:06:04;;;;;;;58.88;36.47;;;7.70;99.90;;;;;;5064588;28;20040;-54
2021/12/14 07:08:30;;;;;;;64.97;39.08;;;7.50;99.90;;;;;;5076994;28;20049;-49
2021/12/14 07:10:56;;;;;;;68.78;38.38;;;7.60;99.90;;;;;;5073491;28;20053;-49
2021/12/14 07:13:27;;;;;;;77.57;40.60;;;7.50;99.90;;;;;;5070489;28;20044;-50
2021/12/14 07:15:53;;;;;;;68.35;38.35;;;7.50;99.90;;;;;;5059763;28;20517;-49
2021/12/14 07:18:28;;;;;;;66.28;37.65;;;7.60;99.90;;;;;;5070346;28;20044;-49
2021/12/14 07:20:54;;;;;;;70.35;37.60;;;7.60;99.90;;;;;;5067169;28;20501;-49
2021/12/14 07:23:32;;;;;;;71.93;38.67;;;7.70;99.90;;;;;;5074455;28;20032;-54
2021/12/14 07:26:18;;;;;;;72.22;40.10;;;7.70;99.90;;;;;;5068509;28;20485;-50
2021/12/14 07:28:46;;;;;;;77.35;40.00;;;7.60;99.90;;;;;;5070280;28;20062;-49
2021/12/14 07:31:14;;;;;;;73.72;39.10;;;7.60;99.90;;;;;;5074107;28;20082;-48
2021/12/14 07:33:46;;;;;;;69.05;37.17;;;7.70;99.90;;;;;;5064378;28;20043;-49
2021/12/14 07:36:20;;;;;;;70.85;38.17;;;7.70;99.90;;;;;;5070211;28;20466;-50
2021/12/14 07:38:53;;;;;;;75.75;40.33;;;7.70;99.90;;;;;;5063944;28;20040;-48
2021/12/14 07:41:36;;;;;;;81.57;42.25;;;7.60;99.90;;;;;;5068169;28;20036;-50
2021/12/14 07:44:04;;;;;;;77.85;40.15;;;7.70;99.90;;;;;;5072460;28;20070;-49
2021/12/14 07:46:51;;;;;;;83.60;42.38;;;7.60;99.90;;;;;;5072829;28;20040;-49
2021/12/14 07:49:27;;;;;;;84.35;41.28;;;7.70;99.90;;;;;;5069871;28;20044;-48
2021/12/14 07:51:58;;;;;;;79.13;41.03;;;7.70;99.90;;;;;;5078323;28;20054;-49
2021/12/14 07:54:30;;;;;;;78.28;40.97;;;7.70;99.90;;;;;;5079825;28;20093;-52
2021/12/14 07:57:06;;;;;;;83.55;42.15;;;7.60;99.90;;;;;;5078303;28;20101;-51
2021/12/14 07:59:45;;;;;;;91.93;43.85;;;7.70;99.90;;;;;;5074243;28;20037;-52
2021/12/14 08:02:30;;;;;;;83.82;42.03;;;7.70;99.90;;;;;;5074110;28;20044;-50
2021/12/14 08:05:13;;;;;;;94.38;43.50;;;7.80;99.90;;;;;;5072775;28;20124;-48
2021/12/14 08:07:43;;;;;;;93.10;42.75;;;7.70;99.90;;;;;;5074847;28;20041;-49
2021/12/14 08:10:24;;;;;;;87.85;41.22;;;7.80;99.90;;;;;;5075159;28;20060;-49
2021/12/14 08:13:02;;;;;;;88.50;41.33;;;7.70;99.90;;;;;;5075240;28;20479;-50
2021/12/14 08:15:51;;;;;;;93.57;42.58;;;7.70;99.90;;;;;;5074271;28;20593;-48
2021/12/14 08:18:35;;;;;;;96.80;42.50;;;7.70;99.90;;;;;;5079990;28;20040;-48
2021/12/14 08:21:10;;;;;;;89.50;39.38;;;7.70;99.90;;;;;;5073381;28;20044;-49
2021/12/14 08:23:48;;;;;;;91.38;41.47;;;7.70;99.90;;;;;;5063827;28;20501;-48
2021/12/14 08:26:48;;;;;;;92.05;43.17;;;7.70;99.90;;;;;;5072672;28;20189;-49
2021/12/14 08:29:18;;;;;;;92.15;42.13;;;7.80;99.90;;;;;;5076472;28;20576;-48
2021/12/14 08:31:54;;;;;;;92.13;42.25;;;7.80;99.90;;;;;;5068471;28;20091;-49
2021/12/14 08:34:26;;;;;;;101.40;43.15;;;7.90;99.90;;;;;;5077608;28;20384;-51
2021/12/14 08:36:52;;;;;;;;;;;7.90;99.90;;;;;;5071584;28;20029;-49
2021/12/14 08:39:21;;;;;;;80.30;39.72;;;7.90;99.90;;;;;;5075693;28;20373;-50
2021/12/14 08:41:55;;;;;;;85.53;39.92;;;8.00;99.90;;;;;;5073469;28;20044;-50
2021/12/14 08:44:37;;;;;;;91.15;39.55;;;8.00;99.90;;;;;;5073411;28;20035;-51
2021/12/14 08:47:06;;;;;;;84.60;41.30;;;8.00;99.90;;;;;;5071345;28;20667;-49
2021/12/14 08:49:33;;;;;;;83.05;39.80;;;8.00;99.90;;;;;;5069341;28;20041;-51
2021/12/14 08:51:59;;;;;;;82.22;41.22;;;8.00;99.90;;;;;;5074603;28;20102;-51
2021/12/14 08:54:29;;;;;;;84.97;40.83;;;8.00;99.90;;;;;;5071884;28;20040;-50
2021/12/14 08:57:08;;;;;;;91.43;39.90;;;8.00;99.90;;;;;;5070288;28;20560;-51
2021/12/14 08:59:36;;;;;;;88.43;39.13;;;8.00;99.90;;;;;;5069436;28;20504;-50
2021/12/14 09:02:03;;;;;;;81.70;40.03;;;7.90;99.90;;;;;;5073924;28;20028;-51
2021/12/14 09:04:35;;;;;;;78.85;37.35;;;8.00;99.90;;;;;;5069439;28;20048;-52
2021/12/14 09:07:05;;;;;;;81.15;40.05;;;7.90;99.90;;;;;;5074228;28;20544;-51
2021/12/14 09:09:31;;;;;;;83.22;40.15;;;8.10;99.90;;;;;;5066065;28;20036;-49
2021/12/14 09:12:03;;;;;;;83.50;39.97;;;8.10;99.90;;;;;;5073663;28;20739;-48
2021/12/14 09:14:29;;;;;;;81.72;38.55;;;8.00;99.90;;;;;;5074223;28;20680;-49
2021/12/14 09:16:57;;;;;;;81.80;39.22;;;8.00;99.90;;;;;;5063427;28;20056;-49
2021/12/14 09:19:55;;;;;;;80.13;39.90;;;8.10;99.90;;;;;;5065656;28;20058;-49
2021/12/14 09:22:25;;;;;;;84.90;38.83;;;8.20;99.90;;;;;;5070703;28;20036;-50
2021/12/14 09:24:54;;;;;;;83.32;39.03;;;8.20;99.90;;;;;;5074169;28;20048;-53
2021/12/14 09:27:23;;;;;;;80.75;38.67;;;8.00;99.90;;;;;;5079174;28;20071;-50
2021/12/14 09:29:50;;;;;;;84.00;40.30;;;8.20;99.90;;;;;;5078959;28;20043;-49
2021/12/14 09:32:21;;;;;;;85.38;41.38;;;8.00;99.90;;;;;;5062362;28;20443;-50
2021/12/14 09:34:47;;;;;;;91.13;40.65;;;8.20;99.90;;;;;;5073237;28;20036;-48
2021/12/14 09:37:15;;;;;;;76.82;38.20;;;8.30;99.90;;;;;;5077686;28;20040;-49
2021/12/14 09:39:48;;;;;;;79.55;38.33;;;8.20;99.90;;;;;;5072795;28;20044;-48
2021/12/14 09:42:20;;;;;;;87.40;41.35;;;8.10;99.90;;;;;;5075501;28;20055;-54
2021/12/14 09:44:48;;;;;;;94.63;41.40;;;8.10;99.90;;;;;;5070057;28;21197;-48
2021/12/14 09:47:18;;;;;;;89.93;40.88;;;8.20;99.90;;;;;;5073300;28;20040;-48
2021/12/14 09:49:46;;;;;;;90.22;42.22;;;8.10;99.90;;;;;;5072144;28;20074;-49
2021/12/14 09:52:25;;;;;;;96.57;41.17;;;8.10;99.90;;;;;;5068981;28;20047;-48
2021/12/14 09:54:52;;;;;;;87.13;41.20;;;8.00;99.90;;;;;;5065541;28;20134;-50
2021/12/14 09:57:35;;;;;;;92.35;43.42;;;8.20;99.90;;;;;;5068785;28;20035;-48
2021/12/14 10:00:17;;;;;;;100.38;43.08;;;8.10;99.90;;;;;;5070500;28;20416;-51
2021/12/14 10:02:45;;;;;;;87.38;41.38;;;8.10;99.90;;;;;;5072584;28;20051;-53
2021/12/14 10:05:39;;;;;;;90.78;41.22;;;8.10;99.90;;;;;;5069127;28;20438;-47
2021/12/14 10:08:16;;;;;;;91.65;41.58;;;8.20;99.90;;;;;;5076085;28;20419;-49
2021/12/14 10:10:57;;;;;;;88.78;40.65;;;8.20;99.90;;;;;;5066510;28;20036;-49
2021/12/14 10:13:23;;;;;;;80.82;37.53;;;8.10;99.90;;;;;;5082647;28;20400;-48
2021/12/14 10:15:53;;;;;;;97.57;39.53;;;8.30;99.90;;;;;;5072426;28;20044;-49
2021/12/14 10:18:28;;;;;;;95.97;43.85;;;8.20;99.90;;;;;;5073952;28;20032;-52
2021/12/14 10:21:09;;;;;;;85.88;39.58;;;8.20;99.90;;;;;;5078278;28;20068;-50
2021/12/14 10:23:37;;;;;;;95.03;41.10;;;8.20;99.90;;;;;;5075498;28;20165;-48
2021/12/14 10:26:04;;;;;;;91.93;40.08;;;8.10;99.90;;;;;;5074953;28;20044;-49
2021/12/14 10:28:31;;;;;;;95.38;42.15;;;8.00;99.90;;;;;;5077813;28;20523;-53
2021/12/14 10:31:02;;;;;;;95.70;40.05;;;8.20;99.90;;;;;;5069865;28;20044;-48
2021/12/14 10:33:31;;;;;;;88.35;40.75;;;8.10;99.90;;;;;;5072993;28;20397;-51
2021/12/14 10:36:03;;;;;;;88.38;38.85;;;8.20;99.90;;;;;;5074010;28;20032;-49
2021/12/14 10:38:38;;;;;;;88.90;39.35;;;8.10;99.90;;;;;;5081650;28;20596;-52
2021/12/14 10:44:00;;;;;;;85.50;38.58;;;8.20;99.90;;;;;;5065230;28;20534;-49
2021/12/14 10:46:30;;;;;;;79.95;38.72;;;9.40;99.90;;;;;;5071843;28;20107;-47
2021/12/14 10:48:58;;;;;;;88.10;38.22;;;8.20;99.90;;;;;;5069014;28;20052;-49
2021/12/14 10:51:28;;;;;;;89.57;37.05;;;8.30;99.90;;;;;;5077342;28;20558;-51
2021/12/14 10:53:57;;;;;;;87.95;38.58;;;8.30;99.90;;;;;;5065926;28;20772;-48
2021/12/14 10:56:27;;;;;;;79.88;36.20;;;8.20;99.90;;;;;;5081120;28;20115;-48
2021/12/14 10:58:57;;;;;;;80.65;35.33;;;8.40;99.90;;;;;;5078201;28;20032;-52
2021/12/14 11:01:30;;;;;;;92.53;37.47;;;8.40;99.90;;;;;;5065113;28;20119;-50
2021/12/14 11:04:05;;;;;;;79.95;35.78;;;8.40;99.90;;;;;;5080765;28;20125;-48
2021/12/14 11:06:33;;;;;;;81.18;36.85;;;8.50;99.90;;;;;;5073431;28;20114;-48
2021/12/14 11:11:49;;;;;;;80.05;34.33;;;8.50;99.90;;;;;;5075965;28;20075;-48
2021/12/14 11:14:20;;;;;;;75.60;32.05;;;8.50;99.90;;;;;;5070259;28;20047;-49
2021/12/14 11:19:47;;;;;;;75.13;33.15;;;8.50;99.90;;;;;;5072251;28;20071;-49
2021/12/14 11:22:24;;;;;;;74.10;33.28;;;8.50;99.90;;;;;;5073479;28;20055;-53
2021/12/14 11:24:55;;;;;;;59.83;30.58;;;8.60;99.90;;;;;;5079024;28;20489;-49
2021/12/14 11:27:28;;;;;;;71.63;30.17;;;8.40;99.90;;;;;;5068805;28;20135;-53
2021/12/14 11:30:11;;;;;;;60.30;29.63;;;8.60;99.90;;;;;;5080352;28;20085;-50
2021/12/14 11:32:41;;;;;;;69.90;31.35;;;8.50;99.90;;;;;;5082910;28;20043;-51
2021/12/14 11:35:27;;;;;;;66.93;29.77;;;8.60;99.90;;;;;;5073445;28;20115;-49
2021/12/14 11:37:55;;;;;;;68.55;30.17;;;8.60;99.90;;;;;;5066783;28;20242;-47
2021/12/14 11:40:23;;;;;;;63.05;28.33;;;9.60;99.90;;;;;;5067933;28;20036;-50
2021/12/14 11:42:51;;;;;;;66.10;29.15;;;9.10;99.90;;;;;;5071128;28;20113;-48
2021/12/14 11:45:21;;;;;;;57.28;27.13;;;8.70;99.90;;;;;;5075012;28;20504;-48
2021/12/14 11:47:58;;;;;;;114.82;38.55;;;8.40;99.90;;;;;;5072380;28;20040;-48
2021/12/14 11:50:44;;;;;;;61.33;26.65;;;8.60;99.90;;;;;;5073277;28;20036;-48
2021/12/14 11:53:17;;;;;;;62.13;27.73;;;8.60;99.90;;;;;;5079502;28;20508;-48
2021/12/14 11:56:01;;;;;;;61.63;26.35;;;8.60;99.90;;;;;;5080794;28;20067;-48
2021/12/14 11:59:00;;;;;;;62.25;26.92;;;8.60;99.90;;;;;;5066312;28;20083;-48
2021/12/14 12:01:42;;;;;;;57.30;27.05;;;8.60;99.90;;;;;;5078817;28;20036;-49
2021/12/14 12:04:33;;;;;;;64.73;25.73;;;8.60;99.90;;;;;;5078973;28;20119;-48
2021/12/14 12:09:48;;;;;;;61.67;26.00;;;8.50;99.90;;;;;;5076988;28;20504;-48
2021/12/14 12:12:44;;;;;;;64.50;27.30;;;8.60;99.90;;;;;;5073065;28;20182;-49
2021/12/14 12:15:20;;;;;;;58.33;24.48;;;9.80;99.90;;;;;;5001862;28;20053;-51
2021/12/14 12:18:00;;;;;;;66.05;27.15;;;8.70;99.90;;;;;;5003079;28;20514;-48
2021/12/14 12:20:34;;;;;;;57.08;25.00;;;8.50;99.90;;;;;;5000858;28;20049;-48
2021/12/14 12:23:14;;;;;;;54.33;24.60;;;8.50;99.90;;;;;;5002449;28;20100;-49
2021/12/14 12:25:47;;;;;;;54.35;23.85;;;8.80;99.90;;;;;;5002916;28;20054;-52
2021/12/14 12:28:23;;;;;;;60.95;25.95;;;8.60;99.90;;;;;;5001037;28;21554;-48
2021/12/14 12:31:11;;;;;;;51.75;24.20;;;9.50;99.90;;;;;;5002303;28;20438;-48
2021/12/14 12:33:46;;;;;;;47.67;21.77;;;8.60;99.90;;;;;;5002377;28;20049;-48
2021/12/14 12:36:15;;;;;;;49.38;22.77;;;9.30;99.90;;;;;;5002212;28;20044;-51
2021/12/14 12:38:51;;;;;;;50.97;22.02;;;8.80;99.90;;;;;;5001480;28;20062;-49
2021/12/14 12:41:41;;;;;;;45.15;20.45;;;8.80;99.90;;;;;;5001202;28;20084;-49
2021/12/14 12:44:14;;;;;;;45.88;19.92;;;8.80;99.90;;;;;;5001763;28;20042;-50
2021/12/14 12:46:57;;;;;;;40.75;19.27;;;8.80;99.90;;;;;;5001872;28;20467;-48
2021/12/14 12:49:24;;;;;;;43.08;21.50;;;8.80;99.90;;;;;;5000607;28;20046;-47
2021/12/14 12:51:54;;;;;;;45.20;19.63;;;8.70;99.90;;;;;;5041365;28;20759;-49
2021/12/14 12:54:38;;;;;;;40.88;19.05;;;9.50;99.90;;;;;;5061340;28;20055;-50
2021/12/14 12:57:33;;;;;;;37.60;17.95;;;8.80;99.90;;;;;;5064911;28;20049;-51
2021/12/14 13:00:11;;;;;;;38.80;20.15;;;8.90;99.90;;;;;;5064013;28;20048;-51
2021/12/14 13:02:49;;;;;;;38.05;18.83;;;8.80;99.90;;;;;;5066349;28;20154;-49
2021/12/14 13:05:44;;;;;;;37.72;17.95;;;8.90;99.90;;;;;;5071448;28;20373;-52
2021/12/14 13:08:34;;;;;;;38.30;16.90;;;8.90;99.90;;;;;;4982205;28;20054;-52
2021/12/14 13:11:17;;;;;;;38.63;17.65;;;8.90;99.90;;;;;;4986007;28;20605;-48
2021/12/14 13:13:47;;;;;;;36.83;19.23;;;8.90;99.90;;;;;;4986935;28;20077;-48
2021/12/14 13:16:15;;;;;;;37.70;17.73;;;10.00;99.90;;;;;;4993704;28;20132;-50
2021/12/14 13:18:46;;;;;;;40.88;20.65;;;8.90;99.90;;;;;;4993354;28;20546;-51
2021/12/14 13:21:27;;;;;;;41.40;19.42;;;9.10;99.90;;;;;;4988114;28;20042;-49
2021/12/14 13:24:26;;;;;;;43.45;20.80;;;9.30;99.90;;;;;;4990892;28;20081;-51
2021/12/14 13:27:03;;;;;;;42.00;19.70;;;9.00;99.90;;;;;;4922847;29;20065;-48
2021/12/14 13:29:48;;;;;;;48.53;20.30;;;9.00;99.90;;;;;;4924238;29;20047;-49
2021/12/14 13:32:30;;;;;;;47.15;21.27;;;8.90;99.90;;;;;;4924239;29;20056;-51
2021/12/14 13:35:07;;;;;;;58.70;24.38;;;8.80;99.90;;;;;;4921658;29;20051;-50
2021/12/14 13:37:38;;;;;;;46.60;23.05;;;8.80;99.90;;;;;;4923643;29;20059;-53
2021/12/14 13:40:13;;;;;;;48.00;21.17;;;9.10;99.90;;;;;;4923262;29;20448;-48
2021/12/14 13:43:00;;;;;;;50.53;23.02;;;8.90;99.90;;;;;;4923456;29;20145;-49
2021/12/14 13:45:32;;;;;;;45.90;21.15;;;8.80;99.90;;;;;;4969729;28;20614;-50
2021/12/14 13:48:00;;;;;;;50.78;22.60;;;8.80;99.90;;;;;;5000461;28;20105;-51
2021/12/14 13:50:34;;;;;;;46.53;23.70;;;8.90;99.90;;;;;;4999313;28;20049;-52
2021/12/14 13:53:01;;;;;;;43.95;20.77;;;8.80;99.90;;;;;;4999875;28;20041;-52
2021/12/14 13:55:45;;;;;;;43.88;20.40;;;10.30;99.90;;;;;;5000295;28;20565;-49
2021/12/14 13:58:23;;;;;;;39.80;21.17;;;8.90;99.90;;;;;;5000102;28;20045;-48